Arney, Indiana
Current Conditions -  °F | °C
As of 7:53 PM on Monday 24 Nov 2014 (Local Time) from KBMG Reporting Station
Broken Clouds Broken Clouds  
Wind Chill: 29°   Ceiling: 7500
Heat Index: 38°   Visibility: 10mi
Dew Point: 29°   Wind: 16mph
Humidity: 70%   Direction: 260°W
Pressure: 29.88"   Gusts: 23mph
Location:  39.2107°N, 86.8508°W
Report Text: KBMG 250053Z 26014G20KT 10SM FEW050 BKN075 03/M02 A2988 RMK AO2 SLP118 T00331017
Loading
Personal Weather Stations






























Interactive Weather Map New forecast layout! Learn more

10-Day Weather Forecast

Advertisements
Track Severe Weather on mobile